Accueil
METAR-TAF:

METAR-TAF

Aéroports :

Ramona Airport

Ramona, Californie, États-Unis

latitude: 33-02-15N, longitude: 116-54-57W, altitude: 424 m

Observation

Le bulletin a été fait il y a 20 minutes, à 23:53 UTC
Vent 8 kt de ouest
Température 15°C
Humidité 72%
Pression 1019 hPa
Visibilité: 16.1 km
Ciel clair

METAR: KRNM 222353Z 26008KT 10SM CLR 15/10 A3010 RMK AO2 SLP188 T01500100 10167 20128 56007

Heure: 16:13 (00:13 UTC)


TAF: absent

Observations et prévisions météorologiques de plus de 4000 aéroports (messages METAR et TAF).

Les stations disponibles sont représentées par des disques jaunes et rouges sur la carte.

Passer la souris dessus pour voir le nom de la station.

Cliquer dessus pour voir les observations et prévisions météorologiques.

Pour changer de carte: cliquez sur les boutons verts avec une croix noire pour zoomer, sur le bouton vert avec un tiret pour effectuer un zoom arrière, ou sur les flèches vertes pour les cartes adjacentes.


METAR-TAF: